sensor_id;sensor_type;location;lat;lon;timestamp;pressure;altitude;pressure_sealevel;temperature;humidity
14790;BME280;7486;51.010;10.366;2023-02-04T00:01:41;99269.28;;;1.76;74.82
14790;BME280;7486;51.010;10.366;2023-02-04T00:04:08;99274.06;;;1.71;75.38
14790;BME280;7486;51.010;10.366;2023-02-04T00:06:35;99256.78;;;1.47;75.68
14790;BME280;7486;51.010;10.366;2023-02-04T00:09:01;99271.00;;;1.54;75.90
14790;BME280;7486;51.010;10.366;2023-02-04T00:11:28;99264.03;;;1.76;75.42
14790;BME280;7486;51.010;10.366;2023-02-04T00:13:55;99270.81;;;1.99;74.93
14790;BME280;7486;51.010;10.366;2023-02-04T00:16:21;99277.97;;;1.97;74.57
14790;BME280;7486;51.010;10.366;2023-02-04T00:18:48;99274.88;;;2.24;73.39
14790;BME280;7486;51.010;10.366;2023-02-04T00:21:15;99292.63;;;2.09;72.35
14790;BME280;7486;51.010;10.366;2023-02-04T00:23:41;99289.13;;;1.99;71.12
14790;BME280;7486;51.010;10.366;2023-02-04T00:26:08;99293.78;;;1.63;72.89
14790;BME280;7486;51.010;10.366;2023-02-04T00:28:35;99315.38;;;1.66;73.22
14790;BME280;7486;51.010;10.366;2023-02-04T00:31:01;99319.81;;;1.32;74.24
14790;BME280;7486;51.010;10.366;2023-02-04T00:33:28;99317.44;;;1.40;74.80
14790;BME280;7486;51.010;10.366;2023-02-04T00:35:55;99313.47;;;1.68;74.01
14790;BME280;7486;51.010;10.366;2023-02-04T00:38:22;99310.28;;;1.96;72.69
14790;BME280;7486;51.010;10.366;2023-02-04T00:40:48;99313.53;;;1.88;72.89
14790;BME280;7486;51.010;10.366;2023-02-04T00:43:17;99313.69;;;1.64;73.15
14790;BME280;7486;51.010;10.366;2023-02-04T00:45:43;99307.81;;;1.51;74.50
14790;BME280;7486;51.010;10.366;2023-02-04T00:48:10;99309.72;;;1.38;76.00
14790;BME280;7486;51.010;10.366;2023-02-04T00:50:38;99311.06;;;1.33;76.38
14790;BME280;7486;51.010;10.366;2023-02-04T00:53:05;99326.13;;;1.29;76.90
14790;BME280;7486;51.010;10.366;2023-02-04T00:55:32;99322.44;;;1.32;76.63
14790;BME280;7486;51.010;10.366;2023-02-04T00:57:59;99330.75;;;1.37;77.18
14790;BME280;7486;51.010;10.366;2023-02-04T01:00:26;99330.09;;;1.55;76.22
14790;BME280;7486;51.010;10.366;2023-02-04T01:02:53;99333.56;;;1.34;77.34
14790;BME280;7486;51.010;10.366;2023-02-04T01:05:20;99326.34;;;1.37;77.05
14790;BME280;7486;51.010;10.366;2023-02-04T01:07:47;99338.69;;;1.46;77.12
14790;BME280;7486;51.010;10.366;2023-02-04T01:10:14;99330.00;;;1.57;76.15
14790;BME280;7486;51.010;10.366;2023-02-04T01:12:40;99319.91;;;1.52;76.22
14790;BME280;7486;51.010;10.366;2023-02-04T01:15:08;99329.03;;;1.58;76.74
14790;BME280;7486;51.010;10.366;2023-02-04T01:17:35;99335.84;;;1.38;77.80
14790;BME280;7486;51.010;10.366;2023-02-04T01:20:01;99344.84;;;1.45;78.32
14790;BME280;7486;51.010;10.366;2023-02-04T01:22:28;99343.66;;;1.38;78.73
14790;BME280;7486;51.010;10.366;2023-02-04T01:24:55;99349.97;;;1.13;79.44
14790;BME280;7486;51.010;10.366;2023-02-04T01:27:40;99337.88;;;1.13;78.78
14790;BME280;7486;51.010;10.366;2023-02-04T01:30:07;99355.09;;;1.26;78.96
14790;BME280;7486;51.010;10.366;2023-02-04T01:32:34;99368.81;;;1.28;79.08
14790;BME280;7486;51.010;10.366;2023-02-04T01:35:01;99368.59;;;1.20;78.88
14790;BME280;7486;51.010;10.366;2023-02-04T01:37:28;99362.19;;;1.02;78.68
14790;BME280;7486;51.010;10.366;2023-02-04T01:39:55;99387.44;;;1.35;77.88
14790;BME280;7486;51.010;10.366;2023-02-04T01:42:22;99400.50;;;1.57;77.14
14790;BME280;7486;51.010;10.366;2023-02-04T01:44:49;99408.09;;;1.38;77.33
14790;BME280;7486;51.010;10.366;2023-02-04T01:47:17;99420.31;;;1.48;77.70
14790;BME280;7486;51.010;10.366;2023-02-04T01:49:45;99417.13;;;1.67;76.86
14790;BME280;7486;51.010;10.366;2023-02-04T01:52:15;99403.56;;;1.84;75.57
14790;BME280;7486;51.010;10.366;2023-02-04T01:54:43;99430.22;;;1.99;75.78
14790;BME280;7486;51.010;10.366;2023-02-04T01:57:14;99429.75;;;2.05;75.13
14790;BME280;7486;51.010;10.366;2023-02-04T01:59:45;99422.97;;;2.02;75.05
14790;BME280;7486;51.010;10.366;2023-02-04T02:02:38;99447.31;;;2.03;74.81
14790;BME280;7486;51.010;10.366;2023-02-04T02:05:12;99456.84;;;2.04;75.97
14790;BME280;7486;51.010;10.366;2023-02-04T02:07:40;99455.13;;;2.25;74.95
14790;BME280;7486;51.010;10.366;2023-02-04T02:10:10;99455.78;;;2.38;74.55
14790;BME280;7486;51.010;10.366;2023-02-04T02:12:37;99441.50;;;1.99;75.08
14790;BME280;7486;51.010;10.366;2023-02-04T02:15:04;99473.13;;;1.85;76.82
14790;BME280;7486;51.010;10.366;2023-02-04T02:17:31;99491.53;;;1.73;77.88
14790;BME280;7486;51.010;10.366;2023-02-04T02:19:58;99501.50;;;1.56;80.01
14790;BME280;7486;51.010;10.366;2023-02-04T02:22:29;99493.94;;;1.07;82.04
14790;BME280;7486;51.010;10.366;2023-02-04T02:24:58;99487.47;;;0.66;84.14
14790;BME280;7486;51.010;10.366;2023-02-04T02:27:24;99507.22;;;0.81;83.90
14790;BME280;7486;51.010;10.366;2023-02-04T02:29:51;99510.94;;;0.66;84.43
14790;BME280;7486;51.010;10.366;2023-02-04T02:32:18;99508.56;;;0.39;85.96
14790;BME280;7486;51.010;10.366;2023-02-04T02:34:46;99522.50;;;0.27;85.74
14790;BME280;7486;51.010;10.366;2023-02-04T02:37:12;99517.81;;;0.19;85.67
14790;BME280;7486;51.010;10.366;2023-02-04T02:39:41;99525.56;;;0.68;85.27
14790;BME280;7486;51.010;10.366;2023-02-04T02:42:14;99534.00;;;0.95;83.61
14790;BME280;7486;51.010;10.366;2023-02-04T02:44:43;99532.94;;;0.74;82.19
14790;BME280;7486;51.010;10.366;2023-02-04T02:47:15;99533.81;;;0.38;84.20
14790;BME280;7486;51.010;10.366;2023-02-04T02:49:43;99544.25;;;0.62;83.91
14790;BME280;7486;51.010;10.366;2023-02-04T02:52:11;99546.25;;;1.06;83.31
14790;BME280;7486;51.010;10.366;2023-02-04T02:54:39;99551.91;;;1.00;82.71
14790;BME280;7486;51.010;10.366;2023-02-04T02:57:17;99545.13;;;0.74;83.09
14790;BME280;7486;51.010;10.366;2023-02-04T02:59:45;99560.41;;;0.67;84.26
14790;BME280;7486;51.010;10.366;2023-02-04T03:02:13;99558.09;;;0.99;83.58
14790;BME280;7486;51.010;10.366;2023-02-04T03:04:49;99563.25;;;0.88;83.52
14790;BME280;7486;51.010;10.366;2023-02-04T03:07:20;99565.72;;;0.66;84.15
14790;BME280;7486;51.010;10.366;2023-02-04T03:09:48;99567.09;;;0.58;84.46
14790;BME280;7486;51.010;10.366;2023-02-04T03:12:14;99573.38;;;0.56;84.83
14790;BME280;7486;51.010;10.366;2023-02-04T03:14:41;99565.56;;;0.80;84.25
14790;BME280;7486;51.010;10.366;2023-02-04T03:17:08;99567.34;;;1.03;82.01
14790;BME280;7486;51.010;10.366;2023-02-04T03:19:36;99584.50;;;0.94;81.65
14790;BME280;7486;51.010;10.366;2023-02-04T03:22:04;99561.38;;;0.53;82.29
14790;BME280;7486;51.010;10.366;2023-02-04T03:24:31;99579.13;;;0.72;82.51
14790;BME280;7486;51.010;10.366;2023-02-04T03:26:59;99577.00;;;0.90;81.45
14790;BME280;7486;51.010;10.366;2023-02-04T03:29:26;99578.97;;;0.99;80.77
14790;BME280;7486;51.010;10.366;2023-02-04T03:31:55;99581.88;;;1.18;80.38
14790;BME280;7486;51.010;10.366;2023-02-04T03:34:22;99584.19;;;0.99;79.68
14790;BME280;7486;51.010;10.366;2023-02-04T03:36:49;99581.00;;;1.06;79.34
14790;BME280;7486;51.010;10.366;2023-02-04T03:39:15;99602.88;;;0.93;79.53
14790;BME280;7486;51.010;10.366;2023-02-04T03:41:42;99605.75;;;0.41;81.46
14790;BME280;7486;51.010;10.366;2023-02-04T03:44:09;99608.97;;;0.44;81.74
14790;BME280;7486;51.010;10.366;2023-02-04T03:46:36;99627.84;;;0.48;81.49
14790;BME280;7486;51.010;10.366;2023-02-04T03:49:02;99641.63;;;0.37;82.67
14790;BME280;7486;51.010;10.366;2023-02-04T03:51:29;99652.25;;;0.22;82.69
14790;BME280;7486;51.010;10.366;2023-02-04T03:53:56;99657.19;;;0.62;81.37
14790;BME280;7486;51.010;10.366;2023-02-04T03:56:22;99667.34;;;0.42;81.18
14790;BME280;7486;51.010;10.366;2023-02-04T03:58:49;99670.38;;;0.48;80.63
14790;BME280;7486;51.010;10.366;2023-02-04T04:01:16;99674.00;;;0.58;80.58
14790;BME280;7486;51.010;10.366;2023-02-04T04:03:42;99693.47;;;0.66;79.32
14790;BME280;7486;51.010;10.366;2023-02-04T04:06:09;99696.84;;;0.42;78.99
14790;BME280;7486;51.010;10.366;2023-02-04T04:08:37;99708.53;;;-0.01;80.37
14790;BME280;7486;51.010;10.366;2023-02-04T04:11:04;99729.66;;;-0.18;81.06
14790;BME280;7486;51.010;10.366;2023-02-04T04:13:31;99673.97;;;-0.82;81.94
14790;BME280;7486;51.010;10.366;2023-02-04T04:15:57;99742.13;;;-0.63;82.60
14790;BME280;7486;51.010;10.366;2023-02-04T04:18:24;99737.97;;;-0.65;81.58
14790;BME280;7486;51.010;10.366;2023-02-04T04:20:51;99744.03;;;-0.79;83.19
14790;BME280;7486;51.010;10.366;2023-02-04T04:23:17;99744.38;;;-0.71;82.75
14790;BME280;7486;51.010;10.366;2023-02-04T04:25:44;99750.41;;;-0.70;82.12
14790;BME280;7486;51.010;10.366;2023-02-04T04:28:11;99742.25;;;-0.78;82.85
14790;BME280;7486;51.010;10.366;2023-02-04T04:30:38;99746.16;;;-0.85;83.32
14790;BME280;7486;51.010;10.366;2023-02-04T04:33:05;99757.09;;;-0.93;83.71
14790;BME280;7486;51.010;10.366;2023-02-04T04:35:31;99761.69;;;-0.84;83.97
14790;BME280;7486;51.010;10.366;2023-02-04T04:37:58;99767.69;;;-0.96;84.13
14790;BME280;7486;51.010;10.366;2023-02-04T04:40:25;99769.91;;;-0.90;84.67
14790;BME280;7486;51.010;10.366;2023-02-04T04:42:52;99781.59;;;-0.83;83.95
14790;BME280;7486;51.010;10.366;2023-02-04T04:45:19;99781.25;;;-0.64;84.35
14790;BME280;7486;51.010;10.366;2023-02-04T04:47:46;99786.81;;;-0.29;83.01
14790;BME280;7486;51.010;10.366;2023-02-04T04:50:13;99777.66;;;-0.22;81.89
14790;BME280;7486;51.010;10.366;2023-02-04T04:52:40;99774.06;;;-0.07;81.50
14790;BME280;7486;51.010;10.366;2023-02-04T04:55:07;99772.97;;;0.09;80.49
14790;BME280;7486;51.010;10.366;2023-02-04T04:57:34;99778.38;;;0.19;80.18
14790;BME280;7486;51.010;10.366;2023-02-04T05:00:00;99782.88;;;0.30;79.35
14790;BME280;7486;51.010;10.366;2023-02-04T05:02:27;99790.28;;;0.48;79.54
14790;BME280;7486;51.010;10.366;2023-02-04T05:04:54;99801.56;;;0.61;79.05
14790;BME280;7486;51.010;10.366;2023-02-04T05:07:21;99808.84;;;0.69;78.55
14790;BME280;7486;51.010;10.366;2023-02-04T05:09:48;99802.63;;;0.72;77.43
14790;BME280;7486;51.010;10.366;2023-02-04T05:12:14;99809.88;;;0.79;77.77
14790;BME280;7486;51.010;10.366;2023-02-04T05:14:41;99811.16;;;0.86;77.37
14790;BME280;7486;51.010;10.366;2023-02-04T05:17:07;99808.66;;;0.85;76.92
14790;BME280;7486;51.010;10.366;2023-02-04T05:19:34;99808.84;;;0.56;77.13
14790;BME280;7486;51.010;10.366;2023-02-04T05:22:01;99809.28;;;0.50;77.19
14790;BME280;7486;51.010;10.366;2023-02-04T05:24:27;99817.06;;;0.25;77.01
14790;BME280;7486;51.010;10.366;2023-02-04T05:26:54;99820.06;;;0.06;77.39
14790;BME280;7486;51.010;10.366;2023-02-04T05:29:21;99837.09;;;-0.02;77.66
14790;BME280;7486;51.010;10.366;2023-02-04T05:31:47;99840.97;;;-0.08;77.73
14790;BME280;7486;51.010;10.366;2023-02-04T05:34:14;99837.72;;;-0.11;78.86
14790;BME280;7486;51.010;10.366;2023-02-04T05:36:41;99836.06;;;0.00;77.62
14790;BME280;7486;51.010;10.366;2023-02-04T05:39:08;99831.84;;;0.12;76.97
14790;BME280;7486;51.010;10.366;2023-02-04T05:41:34;99829.78;;;-0.10;75.59
14790;BME280;7486;51.010;10.366;2023-02-04T05:44:02;99850.03;;;-0.27;76.57
14790;BME280;7486;51.010;10.366;2023-02-04T05:46:28;99844.81;;;-0.27;76.61
14790;BME280;7486;51.010;10.366;2023-02-04T05:48:55;99841.22;;;-0.25;76.08
14790;BME280;7486;51.010;10.366;2023-02-04T05:51:21;99833.38;;;-0.52;77.38
14790;BME280;7486;51.010;10.366;2023-02-04T05:53:48;99858.09;;;-0.18;76.57
14790;BME280;7486;51.010;10.366;2023-02-04T05:56:15;99872.22;;;-0.34;78.19
14790;BME280;7486;51.010;10.366;2023-02-04T05:58:41;99879.94;;;-0.20;76.80
14790;BME280;7486;51.010;10.366;2023-02-04T06:01:08;99888.72;;;-0.21;76.83
14790;BME280;7486;51.010;10.366;2023-02-04T06:03:35;99892.88;;;-0.19;76.50
14790;BME280;7486;51.010;10.366;2023-02-04T06:06:02;99890.75;;;-0.26;75.56
14790;BME280;7486;51.010;10.366;2023-02-04T06:08:28;99888.94;;;-0.38;76.90
14790;BME280;7486;51.010;10.366;2023-02-04T06:10:55;99890.06;;;-0.43;77.35
14790;BME280;7486;51.010;10.366;2023-02-04T06:13:22;99901.44;;;-0.17;77.08
14790;BME280;7486;51.010;10.366;2023-02-04T06:15:48;99901.41;;;-0.44;77.41
14790;BME280;7486;51.010;10.366;2023-02-04T06:18:15;99906.41;;;-0.55;78.08
14790;BME280;7486;51.010;10.366;2023-02-04T06:20:42;99900.78;;;-0.20;78.31
14790;BME280;7486;51.010;10.366;2023-02-04T06:23:08;99903.59;;;0.03;77.55
14790;BME280;7486;51.010;10.366;2023-02-04T06:25:35;99908.47;;;0.22;75.79
14790;BME280;7486;51.010;10.366;2023-02-04T06:28:02;99918.38;;;0.17;73.90
14790;BME280;7486;51.010;10.366;2023-02-04T06:30:29;99927.16;;;0.02;75.04
14790;BME280;7486;51.010;10.366;2023-02-04T06:32:57;99923.06;;;-0.02;75.67
14790;BME280;7486;51.010;10.366;2023-02-04T06:35:23;99934.06;;;0.03;75.86
14790;BME280;7486;51.010;10.366;2023-02-04T06:37:50;99924.09;;;0.22;74.96
14790;BME280;7486;51.010;10.366;2023-02-04T06:40:17;99925.84;;;0.09;73.81
14790;BME280;7486;51.010;10.366;2023-02-04T06:42:43;99924.50;;;-0.11;74.64
14790;BME280;7486;51.010;10.366;2023-02-04T06:45:10;99930.59;;;-0.24;74.76
14790;BME280;7486;51.010;10.366;2023-02-04T06:47:37;99923.09;;;-0.16;75.50
14790;BME280;7486;51.010;10.366;2023-02-04T06:50:04;99937.41;;;-0.09;75.25
14790;BME280;7486;51.010;10.366;2023-02-04T06:52:30;99932.56;;;-0.01;74.64
14790;BME280;7486;51.010;10.366;2023-02-04T06:54:57;99921.47;;;0.09;75.10
14790;BME280;7486;51.010;10.366;2023-02-04T06:57:24;99932.47;;;0.27;73.74
14790;BME280;7486;51.010;10.366;2023-02-04T06:59:50;99943.56;;;0.31;72.83
14790;BME280;7486;51.010;10.366;2023-02-04T07:02:17;99930.84;;;0.12;73.93
14790;BME280;7486;51.010;10.366;2023-02-04T07:04:44;99951.41;;;0.43;73.64
14790;BME280;7486;51.010;10.366;2023-02-04T07:07:13;99958.47;;;0.41;72.76
14790;BME280;7486;51.010;10.366;2023-02-04T07:09:39;99965.72;;;0.50;72.70
14790;BME280;7486;51.010;10.366;2023-02-04T07:12:06;99977.47;;;0.43;72.61
14790;BME280;7486;51.010;10.366;2023-02-04T07:14:33;99971.41;;;0.43;72.80
14790;BME280;7486;51.010;10.366;2023-02-04T07:17:00;99974.09;;;0.41;71.61
14790;BME280;7486;51.010;10.366;2023-02-04T07:19:27;99972.81;;;0.34;71.67
14790;BME280;7486;51.010;10.366;2023-02-04T07:21:54;99938.34;;;-0.10;72.21
14790;BME280;7486;51.010;10.366;2023-02-04T07:24:21;99934.09;;;-0.11;73.05
14790;BME280;7486;51.010;10.366;2023-02-04T07:26:48;99990.59;;;0.15;73.46
14790;BME280;7486;51.010;10.366;2023-02-04T07:29:15;99989.22;;;-0.05;73.42
14790;BME280;7486;51.010;10.366;2023-02-04T07:31:50;99992.28;;;0.02;74.31
14790;BME280;7486;51.010;10.366;2023-02-04T07:34:17;100001.97;;;-0.00;73.69
14790;BME280;7486;51.010;10.366;2023-02-04T07:36:44;99993.97;;;0.03;73.49
14790;BME280;7486;51.010;10.366;2023-02-04T07:39:11;100016.66;;;0.01;73.53
14790;BME280;7486;51.010;10.366;2023-02-04T07:41:37;100016.56;;;0.02;72.71
14790;BME280;7486;51.010;10.366;2023-02-04T07:44:04;100016.19;;;0.08;72.66
14790;BME280;7486;51.010;10.366;2023-02-04T07:46:31;100017.22;;;0.06;72.55
14790;BME280;7486;51.010;10.366;2023-02-04T07:48:58;100027.44;;;0.09;72.22
14790;BME280;7486;51.010;10.366;2023-02-04T07:51:24;99977.09;;;-0.32;73.07
14790;BME280;7486;51.010;10.366;2023-02-04T07:53:54;100038.16;;;0.04;72.70
14790;BME280;7486;51.010;10.366;2023-02-04T07:56:21;100035.34;;;0.07;72.84
14790;BME280;7486;51.010;10.366;2023-02-04T07:58:48;100042.97;;;0.10;73.10
14790;BME280;7486;51.010;10.366;2023-02-04T08:01:15;100043.72;;;0.13;72.96
14790;BME280;7486;51.010;10.366;2023-02-04T08:03:42;100063.44;;;0.31;71.98
14790;BME280;7486;51.010;10.366;2023-02-04T08:06:10;100059.22;;;0.28;71.41
14790;BME280;7486;51.010;10.366;2023-02-04T08:08:36;100057.84;;;0.23;71.83
14790;BME280;7486;51.010;10.366;2023-02-04T08:11:03;100065.75;;;0.21;72.71
14790;BME280;7486;51.010;10.366;2023-02-04T08:13:33;100070.97;;;0.35;71.94
14790;BME280;7486;51.010;10.366;2023-02-04T08:16:02;100077.09;;;0.34;71.34
14790;BME280;7486;51.010;10.366;2023-02-04T08:18:29;99978.91;;;-0.06;70.72
14790;BME280;7486;51.010;10.366;2023-02-04T08:20:56;100085.81;;;0.61;70.47
14790;BME280;7486;51.010;10.366;2023-02-04T08:23:22;100079.47;;;0.51;70.00
14790;BME280;7486;51.010;10.366;2023-02-04T08:25:49;100067.44;;;0.63;70.98
14790;BME280;7486;51.010;10.366;2023-02-04T08:28:19;100082.63;;;0.56;70.66
14790;BME280;7486;51.010;10.366;2023-02-04T08:30:48;100087.41;;;0.50;69.78
14790;BME280;7486;51.010;10.366;2023-02-04T08:33:15;100063.56;;;0.01;71.46
14790;BME280;7486;51.010;10.366;2023-02-04T08:35:42;100091.53;;;0.26;71.09
14790;BME280;7486;51.010;10.366;2023-02-04T08:38:08;100082.56;;;0.03;70.35
14790;BME280;7486;51.010;10.366;2023-02-04T08:40:35;100112.50;;;0.10;70.98
14790;BME280;7486;51.010;10.366;2023-02-04T08:43:04;100111.56;;;0.25;71.40
14790;BME280;7486;51.010;10.366;2023-02-04T08:45:31;100120.88;;;0.29;70.64
14790;BME280;7486;51.010;10.366;2023-02-04T08:47:58;100117.69;;;0.24;70.90
14790;BME280;7486;51.010;10.366;2023-02-04T08:50:28;100132.78;;;0.47;71.21
14790;BME280;7486;51.010;10.366;2023-02-04T08:53:07;100134.22;;;0.66;70.09
14790;BME280;7486;51.010;10.366;2023-02-04T08:55:33;100129.84;;;0.52;69.26
14790;BME280;7486;51.010;10.366;2023-02-04T08:58:00;100104.81;;;0.49;69.52
14790;BME280;7486;51.010;10.366;2023-02-04T09:00:27;100126.63;;;0.34;68.78
14790;BME280;7486;51.010;10.366;2023-02-04T09:02:54;100134.81;;;0.28;68.30
14790;BME280;7486;51.010;10.366;2023-02-04T09:05:20;100131.03;;;0.05;70.02
14790;BME280;7486;51.010;10.366;2023-02-04T09:07:47;100123.09;;;-0.21;69.21
14790;BME280;7486;51.010;10.366;2023-02-04T09:10:14;100132.56;;;-0.34;69.81
14790;BME280;7486;51.010;10.366;2023-02-04T09:12:41;100147.09;;;-0.16;71.25
14790;BME280;7486;51.010;10.366;2023-02-04T09:15:09;100148.50;;;-0.25;70.05
14790;BME280;7486;51.010;10.366;2023-02-04T09:17:36;100146.47;;;-0.50;71.22
14790;BME280;7486;51.010;10.366;2023-02-04T09:20:04;100151.78;;;-0.37;71.11
14790;BME280;7486;51.010;10.366;2023-02-04T09:22:33;100112.09;;;-0.41;71.50
14790;BME280;7486;51.010;10.366;2023-02-04T09:25:00;100149.34;;;0.04;71.54
14790;BME280;7486;51.010;10.366;2023-02-04T09:27:27;100116.63;;;-0.00;70.26
14790;BME280;7486;51.010;10.366;2023-02-04T09:29:54;100120.13;;;0.27;67.80
14790;BME280;7486;51.010;10.366;2023-02-04T09:32:21;100104.50;;;0.13;68.50
14790;BME280;7486;51.010;10.366;2023-02-04T09:34:47;100135.78;;;0.13;69.78
14790;BME280;7486;51.010;10.366;2023-02-04T09:37:14;100155.88;;;0.25;68.92
14790;BME280;7486;51.010;10.366;2023-02-04T09:39:41;100154.19;;;0.24;68.80
14790;BME280;7486;51.010;10.366;2023-02-04T09:42:11;100160.16;;;0.12;70.66
14790;BME280;7486;51.010;10.366;2023-02-04T09:44:39;100139.97;;;0.16;71.61
14790;BME280;7486;51.010;10.366;2023-02-04T09:47:09;100159.59;;;0.35;69.64
14790;BME280;7486;51.010;10.366;2023-02-04T09:49:37;100109.34;;;0.19;68.90
14790;BME280;7486;51.010;10.366;2023-02-04T09:52:09;100166.88;;;0.30;68.81
14790;BME280;7486;51.010;10.366;2023-02-04T09:54:37;100178.00;;;0.60;68.55
14790;BME280;7486;51.010;10.366;2023-02-04T09:57:18;100183.44;;;0.43;68.04
14790;BME280;7486;51.010;10.366;2023-02-04T09:59:46;100139.56;;;0.07;66.39
14790;BME280;7486;51.010;10.366;2023-02-04T10:02:33;100193.28;;;0.24;68.46
14790;BME280;7486;51.010;10.366;2023-02-04T10:05:00;100199.59;;;0.34;65.86
14790;BME280;7486;51.010;10.366;2023-02-04T10:07:27;100189.28;;;0.33;64.95
14790;BME280;7486;51.010;10.366;2023-02-04T10:09:54;100197.38;;;0.42;65.79
14790;BME280;7486;51.010;10.366;2023-02-04T10:12:21;100197.84;;;0.63;65.72
14790;BME280;7486;51.010;10.366;2023-02-04T10:14:48;100192.28;;;0.41;65.82
14790;BME280;7486;51.010;10.366;2023-02-04T10:17:19;100198.41;;;0.54;67.00
14790;BME280;7486;51.010;10.366;2023-02-04T10:19:47;100193.44;;;0.78;64.95
14790;BME280;7486;51.010;10.366;2023-02-04T10:22:19;100197.19;;;0.59;67.21
14790;BME280;7486;51.010;10.366;2023-02-04T10:24:47;100157.16;;;0.18;67.65
14790;BME280;7486;51.010;10.366;2023-02-04T10:27:13;100157.75;;;0.37;68.02
14790;BME280;7486;51.010;10.366;2023-02-04T10:29:40;100201.88;;;0.54;65.30
14790;BME280;7486;51.010;10.366;2023-02-04T10:32:30;100186.22;;;0.54;67.09
14790;BME280;7486;51.010;10.366;2023-02-04T10:35:00;100201.88;;;0.54;67.96
14790;BME280;7486;51.010;10.366;2023-02-04T10:37:27;100204.94;;;0.61;67.12
14790;BME280;7486;51.010;10.366;2023-02-04T10:39:54;100211.34;;;0.55;68.41
14790;BME280;7486;51.010;10.366;2023-02-04T10:42:26;100216.00;;;0.65;67.28
14790;BME280;7486;51.010;10.366;2023-02-04T10:44:53;100216.00;;;0.50;68.75
14790;BME280;7486;51.010;10.366;2023-02-04T10:47:23;100218.25;;;0.42;68.66
14790;BME280;7486;51.010;10.366;2023-02-04T10:49:54;100217.50;;;0.54;68.65
14790;BME280;7486;51.010;10.366;2023-02-04T10:52:23;100173.19;;;0.40;67.28
14790;BME280;7486;51.010;10.366;2023-02-04T10:54:52;100211.97;;;0.73;68.56
14790;BME280;7486;51.010;10.366;2023-02-04T10:57:25;100226.13;;;0.69;67.46
14790;BME280;7486;51.010;10.366;2023-02-04T10:59:57;100171.88;;;0.33;66.65
14790;BME280;7486;51.010;10.366;2023-02-04T11:04:53;100222.53;;;0.57;69.29
14790;BME280;7486;51.010;10.366;2023-02-04T11:07:20;100224.75;;;0.49;67.66
14790;BME280;7486;51.010;10.366;2023-02-04T11:09:48;100228.94;;;0.38;67.42
14790;BME280;7486;51.010;10.366;2023-02-04T11:15:34;100237.91;;;0.48;67.89
14790;BME280;7486;51.010;10.366;2023-02-04T11:18:04;100236.47;;;0.28;67.10
14790;BME280;7486;51.010;10.366;2023-02-04T11:20:32;100250.56;;;0.40;67.83
14790;BME280;7486;51.010;10.366;2023-02-04T11:26:13;100258.75;;;0.34;67.63
14790;BME280;7486;51.010;10.366;2023-02-04T11:33:49;100258.75;;;0.48;64.51
14790;BME280;7486;51.010;10.366;2023-02-04T11:36:16;100270.78;;;0.79;64.80
14790;BME280;7486;51.010;10.366;2023-02-04T11:38:47;100263.69;;;0.81;63.68
14790;BME280;7486;51.010;10.366;2023-02-04T11:41:22;100271.72;;;0.78;63.94
14790;BME280;7486;51.010;10.366;2023-02-04T11:43:51;100258.09;;;0.73;64.45
14790;BME280;7486;51.010;10.366;2023-02-04T11:46:19;100268.06;;;1.08;62.51
14790;BME280;7486;51.010;10.366;2023-02-04T11:48:51;100274.91;;;1.24;62.18
14790;BME280;7486;51.010;10.366;2023-02-04T11:51:33;100256.78;;;1.08;62.59
14790;BME280;7486;51.010;10.366;2023-02-04T11:54:00;100261.97;;;1.22;64.87
14790;BME280;7486;51.010;10.366;2023-02-04T11:56:27;100280.53;;;1.18;63.29
14790;BME280;7486;51.010;10.366;2023-02-04T11:58:56;100271.97;;;1.16;63.72
14790;BME280;7486;51.010;10.366;2023-02-04T12:01:29;100280.47;;;1.05;64.74
14790;BME280;7486;51.010;10.366;2023-02-04T12:07:49;100274.50;;;0.75;65.43
14790;BME280;7486;51.010;10.366;2023-02-04T12:12:48;100278.41;;;1.10;65.07
14790;BME280;7486;51.010;10.366;2023-02-04T12:15:20;100278.19;;;1.27;64.07
14790;BME280;7486;51.010;10.366;2023-02-04T12:18:05;100281.78;;;1.12;64.09
14790;BME280;7486;51.010;10.366;2023-02-04T12:20:33;100216.63;;;0.82;64.41
14790;BME280;7486;51.010;10.366;2023-02-04T12:23:00;100149.50;;;0.57;64.05
14790;BME280;7486;51.010;10.366;2023-02-04T12:25:27;100280.44;;;1.19;64.88
14790;BME280;7486;51.010;10.366;2023-02-04T12:27:54;100214.06;;;0.68;65.70
14790;BME280;7486;51.010;10.366;2023-02-04T12:30:22;100278.69;;;1.05;65.67
14790;BME280;7486;51.010;10.366;2023-02-04T12:32:50;100240.75;;;1.00;64.82
14790;BME280;7486;51.010;10.366;2023-02-04T12:35:17;100279.41;;;1.22;65.71
14790;BME280;7486;51.010;10.366;2023-02-04T12:37:44;100275.25;;;0.91;66.80
14790;BME280;7486;51.010;10.366;2023-02-04T12:40:16;100232.19;;;0.98;66.63
14790;BME280;7486;51.010;10.366;2023-02-04T12:42:43;100250.84;;;0.78;66.70
14790;BME280;7486;51.010;10.366;2023-02-04T12:45:12;100274.69;;;1.00;67.07
14790;BME280;7486;51.010;10.366;2023-02-04T12:47:41;100283.28;;;1.02;67.09
14790;BME280;7486;51.010;10.366;2023-02-04T12:50:12;100261.81;;;0.97;66.35
14790;BME280;7486;51.010;10.366;2023-02-04T12:52:40;100252.69;;;0.76;66.55
14790;BME280;7486;51.010;10.366;2023-02-04T12:55:08;100161.81;;;0.41;67.30
14790;BME280;7486;51.010;10.366;2023-02-04T12:57:35;100056.84;;;-0.03;64.60
14790;BME280;7486;51.010;10.366;2023-02-04T13:00:02;100167.91;;;0.69;65.18
14790;BME280;7486;51.010;10.366;2023-02-04T13:02:29;100232.38;;;0.81;65.17
14790;BME280;7486;51.010;10.366;2023-02-04T13:04:56;100091.00;;;-0.36;66.73
14790;BME280;7486;51.010;10.366;2023-02-04T13:07:23;100253.06;;;0.41;66.53
14790;BME280;7486;51.010;10.366;2023-02-04T13:09:50;100216.19;;;0.19;66.97
14790;BME280;7486;51.010;10.366;2023-02-04T13:12:17;100250.94;;;0.34;67.22
14790;BME280;7486;51.010;10.366;2023-02-04T13:14:43;100284.72;;;0.49;66.92
14790;BME280;7486;51.010;10.366;2023-02-04T13:17:10;100274.13;;;0.81;66.23
14790;BME280;7486;51.010;10.366;2023-02-04T13:19:37;100178.28;;;0.42;66.67
14790;BME280;7486;51.010;10.366;2023-02-04T13:22:04;100293.25;;;1.50;65.28
14790;BME280;7486;51.010;10.366;2023-02-04T13:24:34;100152.66;;;0.62;63.20
14790;BME280;7486;51.010;10.366;2023-02-04T13:27:01;100157.75;;;0.37;63.72
14790;BME280;7486;51.010;10.366;2023-02-04T13:29:27;100304.09;;;1.30;62.82